Time;durP1;ratioP1;P1;durP2;ratioP2;P2;SDS_P1;SDS_P2;PMS_P1;PMS_P2;Temp;Humidity;BMP_temperature;BMP_pressure;BME280_temperature;BME280_humidity;BME280_pressure;Samples;Min_cycle;Max_cycle;Signal;HPM_P1;HPM_P2
2023/04/25 00:02:34;;;;;;;12.27;4.53;;;6.30;99.90;;;;;;7303653;32;20130;-54
2023/04/25 00:06:37;;;;;;;14.07;4.40;;;6.40;99.90;;;;;;7301313;32;20095;-56
2023/04/25 00:10:39;;;;;;;17.40;4.82;;;6.50;99.90;;;;;;7304910;32;20722;-56
2023/04/25 00:14:40;;;;;;;14.32;4.47;;;6.50;99.90;;;;;;7305103;32;20097;-56
2023/04/25 00:18:42;;;;;;;17.02;4.30;;;6.50;99.90;;;;;;7301258;32;20534;-56
2023/04/25 00:22:45;;;;;;;18.55;4.87;;;6.50;99.90;;;;;;7308180;32;20206;-56
2023/04/25 00:26:47;;;;;;;20.92;4.93;;;6.60;99.90;;;;;;7297224;32;20189;-57
2023/04/25 00:30:49;;;;;;;16.35;4.22;;;6.70;99.90;;;;;;7308812;32;20119;-56
2023/04/25 00:34:50;;;;;;;14.23;5.05;;;6.70;99.90;;;;;;7298856;32;20149;-57
2023/04/25 00:38:53;;;;;;;18.17;4.72;;;6.80;99.90;;;;;;7299166;32;20129;-56
2023/04/25 00:42:55;;;;;;;12.63;4.00;;;6.70;99.90;;;;;;7300904;32;20970;-56
2023/04/25 00:46:57;;;;;;;13.40;4.10;;;6.80;99.90;;;;;;7299109;32;20100;-57
2023/04/25 00:50:59;;;;;;;16.00;3.83;;;6.70;99.90;;;;;;7299572;32;20490;-56
2023/04/25 00:55:01;;;;;;;13.20;4.20;;;6.70;99.90;;;;;;7302919;32;20504;-56
2023/04/25 00:59:03;;;;;;;13.18;4.28;;;6.80;99.90;;;;;;7298399;32;20227;-53
2023/04/25 01:03:05;;;;;;;11.90;4.15;;;6.80;99.90;;;;;;7299005;32;20122;-56
2023/04/25 01:07:08;;;;;;;11.73;4.03;;;6.80;99.90;;;;;;7310212;32;20099;-57
2023/04/25 01:11:09;;;;;;;9.90;3.80;;;6.80;99.90;;;;;;7302935;32;20115;-56
2023/04/25 01:15:11;;;;;;;13.20;3.78;;;6.80;99.90;;;;;;7304274;32;20221;-56
2023/04/25 01:19:16;;;;;;;10.45;3.95;;;6.90;99.90;;;;;;7306360;32;20465;-56
2023/04/25 01:23:22;;;;;;;22.92;5.05;;;6.90;99.90;;;;;;7306707;32;20108;-54
2023/04/25 01:27:25;;;;;;;11.07;3.42;;;6.90;99.90;;;;;;7297714;32;20154;-54
2023/04/25 01:31:28;;;;;;;8.38;3.37;;;6.90;99.90;;;;;;7301586;32;20124;-55
2023/04/25 01:35:29;;;;;;;10.95;3.42;;;6.90;99.90;;;;;;7299910;32;20161;-54
2023/04/25 01:39:31;;;;;;;12.15;3.45;;;6.90;99.90;;;;;;7300019;32;20146;-54
2023/04/25 01:43:33;;;;;;;13.88;3.62;;;6.90;99.90;;;;;;7296252;32;20134;-54
2023/04/25 01:47:35;;;;;;;11.75;4.03;;;6.90;99.90;;;;;;7299068;32;20190;-55
2023/04/25 01:51:37;;;;;;;12.82;3.80;;;6.80;99.90;;;;;;7299696;32;20173;-54
2023/04/25 01:55:39;;;;;;;11.43;4.20;;;6.80;99.90;;;;;;7304732;32;20191;-54
2023/04/25 01:59:41;;;;;;;10.25;4.55;;;6.80;99.90;;;;;;7305432;32;20150;-54
2023/04/25 02:03:43;;;;;;;13.13;4.60;;;6.80;99.90;;;;;;7298780;32;20131;-54
2023/04/25 02:07:46;;;;;;;12.05;4.53;;;6.80;99.90;;;;;;7296109;32;20290;-54
2023/04/25 02:11:48;;;;;;;12.18;4.68;;;6.80;99.90;;;;;;7301666;32;20125;-54
2023/04/25 02:15:49;;;;;;;10.27;4.22;;;6.80;99.90;;;;;;7299575;32;20227;-55
2023/04/25 02:19:51;;;;;;;10.80;4.15;;;6.70;99.90;;;;;;7304126;32;20122;-54
2023/04/25 02:23:53;;;;;;;11.05;4.72;;;6.70;99.90;;;;;;7289888;32;20223;-55
2023/04/25 02:27:55;;;;;;;14.87;4.53;;;6.70;99.90;;;;;;7296945;32;20562;-55
2023/04/25 02:31:57;;;;;;;14.52;4.55;;;6.70;99.90;;;;;;7300794;32;20098;-55
2023/04/25 02:35:58;;;;;;;11.77;4.18;;;6.70;99.90;;;;;;7307964;32;20119;-55
2023/04/25 02:40:01;;;;;;;10.10;4.18;;;6.70;99.90;;;;;;7293530;32;20157;-55
2023/04/25 02:44:02;;;;;;;11.95;4.00;;;6.80;99.90;;;;;;7305489;32;20104;-55
2023/04/25 02:48:04;;;;;;;12.80;4.25;;;6.70;99.90;;;;;;7299020;32;20235;-55
2023/04/25 02:52:06;;;;;;;13.68;4.30;;;6.70;99.90;;;;;;7296321;32;20108;-55
2023/04/25 02:56:08;;;;;;;9.98;4.07;;;6.80;99.90;;;;;;7297862;32;20188;-55
2023/04/25 03:00:11;;;;;;;13.88;4.07;;;6.80;99.90;;;;;;7297290;32;20150;-55
2023/04/25 03:04:13;;;;;;;10.88;4.50;;;6.70;99.90;;;;;;7296359;32;20125;-55
2023/04/25 03:08:15;;;;;;;12.07;4.32;;;6.60;99.90;;;;;;7307948;32;20130;-55
2023/04/25 03:12:16;;;;;;;11.90;4.37;;;6.60;99.90;;;;;;7301094;32;20689;-55
2023/04/25 03:16:18;;;;;;;11.60;4.40;;;6.70;99.90;;;;;;7309234;32;20103;-55
2023/04/25 03:20:20;;;;;;;10.40;3.95;;;6.60;99.90;;;;;;7305362;32;20247;-54
2023/04/25 03:24:21;;;;;;;10.38;4.03;;;6.60;99.90;;;;;;7300649;32;20526;-55
2023/04/25 03:28:23;;;;;;;13.25;4.22;;;6.60;99.90;;;;;;7298184;32;20121;-54
2023/04/25 03:32:25;;;;;;;8.93;3.60;;;6.60;99.90;;;;;;7304999;32;20296;-55
2023/04/25 03:36:27;;;;;;;14.02;4.43;;;6.60;99.90;;;;;;7304740;32;20169;-55
2023/04/25 03:40:28;;;;;;;16.55;4.82;;;6.50;99.90;;;;;;7299814;32;20108;-55
2023/04/25 03:44:30;;;;;;;12.25;4.47;;;6.50;99.90;;;;;;7299862;32;20104;-55
2023/04/25 03:48:32;;;;;;;16.45;4.60;;;6.40;99.90;;;;;;7293224;32;20139;-55
2023/04/25 03:52:34;;;;;;;11.48;4.82;;;6.40;99.90;;;;;;7295700;32;20393;-55
2023/04/25 03:56:35;;;;;;;16.65;5.40;;;6.20;99.90;;;;;;7301582;32;20146;-55
2023/04/25 04:00:37;;;;;;;18.15;5.32;;;6.20;99.90;;;;;;7295645;32;20258;-55
2023/04/25 04:04:39;;;;;;;13.38;4.85;;;6.20;99.90;;;;;;7298299;32;20116;-54
2023/04/25 04:08:41;;;;;;;15.45;5.65;;;6.20;99.90;;;;;;7305038;32;20144;-54
2023/04/25 04:12:42;;;;;;;15.40;4.40;;;6.20;99.90;;;;;;7300935;32;20140;-54
2023/04/25 04:16:44;;;;;;;13.60;5.10;;;6.20;99.90;;;;;;7298484;32;20122;-54
2023/04/25 04:20:46;;;;;;;14.40;5.00;;;6.20;99.90;;;;;;7299459;32;20227;-54
2023/04/25 04:24:49;;;;;;;19.75;4.65;;;6.20;99.90;;;;;;7300566;32;20162;-54
2023/04/25 04:28:51;;;;;;;14.57;4.95;;;6.20;99.90;;;;;;7300113;32;20378;-54
2023/04/25 04:32:53;;;;;;;14.23;4.68;;;6.20;99.90;;;;;;7309568;32;20118;-54
2023/04/25 04:36:55;;;;;;;14.05;4.80;;;6.10;99.90;;;;;;7307028;32;20217;-54
2023/04/25 04:40:57;;;;;;;16.80;4.97;;;6.10;99.90;;;;;;7301910;32;20502;-55
2023/04/25 04:44:58;;;;;;;15.10;5.32;;;6.00;99.90;;;;;;7313738;32;20305;-54
2023/04/25 04:49:00;;;;;;;22.23;5.85;;;6.00;99.90;;;;;;7309699;32;20207;-55
2023/04/25 04:53:04;;;;;;;14.48;4.90;;;6.00;99.90;;;;;;7303700;32;20115;-56
2023/04/25 04:57:05;;;;;;;18.20;6.10;;;6.00;99.90;;;;;;7306178;32;20217;-55
2023/04/25 05:01:07;;;;;;;21.30;6.50;;;6.10;99.90;;;;;;7306881;32;20101;-55
2023/04/25 05:05:10;;;;;;;17.65;5.62;;;6.10;99.90;;;;;;7300933;32;20616;-57
2023/04/25 05:09:12;;;;;;;16.23;5.75;;;6.00;99.90;;;;;;7300790;32;20177;-56
2023/04/25 05:13:13;;;;;;;17.75;6.20;;;6.10;99.90;;;;;;7311036;32;20220;-56
2023/04/25 05:17:15;;;;;;;15.95;4.65;;;6.10;99.90;;;;;;7305847;32;20223;-57
2023/04/25 05:21:17;;;;;;;22.17;5.37;;;6.20;99.90;;;;;;7308860;32;20204;-56
2023/04/25 05:25:19;;;;;;;18.58;5.37;;;6.10;99.90;;;;;;7299892;32;20149;-56
2023/04/25 05:29:20;;;;;;;27.25;5.37;;;6.30;99.90;;;;;;7308245;32;20198;-56
2023/04/25 05:33:22;;;;;;;19.90;4.72;;;6.20;99.90;;;;;;7308110;32;20192;-56
2023/04/25 05:37:24;;;;;;;17.55;4.47;;;6.30;99.90;;;;;;7313739;32;20118;-55
2023/04/25 05:41:26;;;;;;;19.80;4.10;;;6.30;99.90;;;;;;7299278;32;20261;-56
2023/04/25 05:45:27;;;;;;;12.93;3.90;;;6.30;99.90;;;;;;7304955;32;20171;-55
2023/04/25 05:49:29;;;;;;;18.17;4.18;;;6.30;99.90;;;;;;7304164;32;20127;-57
2023/04/25 05:53:31;;;;;;;18.25;3.90;;;6.30;99.90;;;;;;7302232;32;20118;-55
2023/04/25 05:57:33;;;;;;;12.32;3.90;;;6.40;99.90;;;;;;7303274;32;20111;-55
2023/04/25 06:01:48;;;;;;;13.05;3.75;;;6.50;99.90;;;;;;7298217;32;20223;-55
2023/04/25 06:05:50;;;;;;;19.73;4.40;;;6.60;99.90;;;;;;7298217;32;20125;-55
2023/04/25 06:09:53;;;;;;;11.77;3.70;;;6.90;99.90;;;;;;7300310;32;20150;-55
2023/04/25 06:13:54;;;;;;;15.77;3.80;;;6.90;99.90;;;;;;7296728;32;20407;-55
2023/04/25 06:17:56;;;;;;;10.88;3.80;;;7.10;99.90;;;;;;7302148;32;20244;-55
2023/04/25 06:21:58;;;;;;;18.25;3.20;;;7.00;99.90;;;;;;7297984;32;20194;-55
2023/04/25 06:26:00;;;;;;;16.60;4.20;;;7.20;99.90;;;;;;7298434;32;20108;-55
2023/04/25 06:30:01;;;;;;;13.40;4.03;;;7.30;99.90;;;;;;7296191;32;20126;-55
2023/04/25 06:34:03;;;;;;;13.62;4.20;;;7.10;99.90;;;;;;7298765;32;20107;-56
2023/04/25 06:38:05;;;;;;;16.85;4.65;;;7.30;99.90;;;;;;7310082;32;20241;-55
2023/04/25 06:42:07;;;;;;;13.35;4.28;;;7.30;99.90;;;;;;7313930;32;20843;-55
2023/04/25 06:46:08;;;;;;;15.90;4.35;;;7.50;99.90;;;;;;7308628;32;20163;-56
2023/04/25 06:50:10;;;;;;;18.02;4.50;;;7.50;99.90;;;;;;7296997;32;20175;-56
2023/04/25 06:54:12;;;;;;;18.33;4.82;;;7.40;99.90;;;;;;7305906;32;20115;-55
2023/04/25 06:58:14;;;;;;;16.42;3.58;;;7.40;99.90;;;;;;7311260;32;20372;-55
2023/04/25 07:02:16;;;;;;;10.85;3.15;;;7.70;99.90;;;;;;7299998;32;20198;-55
2023/04/25 07:06:18;;;;;;;25.25;4.47;;;7.90;99.90;;;;;;7298380;32;20176;-55
2023/04/25 07:10:21;;;;;;;21.33;4.60;;;8.10;99.90;;;;;;7297440;32;20628;-55
2023/04/25 07:14:22;;;;;;;18.17;3.97;;;8.00;99.90;;;;;;7299474;32;20670;-55
2023/04/25 07:18:24;;;;;;;13.23;3.22;;;8.10;99.90;;;;;;7303645;32;20474;-55
2023/04/25 07:22:26;;;;;;;10.95;3.40;;;7.90;99.90;;;;;;7304546;32;20221;-55
2023/04/25 07:26:28;;;;;;;16.67;4.28;;;7.80;99.90;;;;;;7311191;32;20100;-55
2023/04/25 07:30:30;;;;;;;12.18;3.90;;;7.60;99.90;;;;;;7296991;32;20525;-52
2023/04/25 07:34:32;;;;;;;16.52;4.72;;;7.60;99.90;;;;;;7299144;32;20125;-55
2023/04/25 07:38:34;;;;;;;25.17;4.68;;;7.80;99.90;;;;;;7296990;32;20126;-54
2023/04/25 07:42:35;;;;;;;20.52;4.75;;;7.90;99.90;;;;;;7297409;32;20274;-55
2023/04/25 07:46:37;;;;;;;13.93;3.53;;;8.10;99.90;;;;;;7301883;32;20310;-55
2023/04/25 07:50:39;;;;;;;15.38;3.90;;;8.30;99.90;;;;;;7308641;32;20167;-56
2023/04/25 07:54:41;;;;;;;19.00;3.72;;;8.60;99.90;;;;;;7303597;32;20137;-56
2023/04/25 07:58:43;;;;;;;18.55;4.80;;;8.90;99.90;;;;;;7310802;32;20364;-56
2023/04/25 08:02:45;;;;;;;12.27;2.75;;;9.10;99.90;;;;;;7302961;32;20195;-55
2023/04/25 08:06:48;;;;;;;15.07;3.55;;;9.70;99.90;;;;;;7299650;32;20195;-55
2023/04/25 08:10:50;;;;;;;15.38;3.92;;;10.00;99.90;;;;;;7310153;32;20131;-56
2023/04/25 08:14:52;;;;;;;13.35;3.30;;;10.20;99.90;;;;;;7306525;32;20442;-55
2023/04/25 08:18:53;;;;;;;9.63;2.45;;;10.00;99.90;;;;;;7305773;32;20309;-56
2023/04/25 08:22:55;;;;;;;16.30;3.67;;;10.00;99.90;;;;;;7302730;32;20120;-56
2023/04/25 08:26:58;;;;;;;16.83;3.83;;;10.10;99.90;;;;;;7301428;32;20352;-56
2023/04/25 08:31:00;;;;;;;11.23;2.80;;;9.70;99.90;;;;;;7301659;32;20104;-56
2023/04/25 08:35:02;;;;;;;18.25;2.70;;;9.90;99.90;;;;;;7303710;32;20104;-56
2023/04/25 08:39:04;;;;;;;8.45;2.90;;;9.60;99.90;;;;;;7305510;32;20104;-56
2023/04/25 08:43:11;;;;;;;7.25;2.22;;;9.70;99.90;;;;;;7306401;32;20234;-56
2023/04/25 08:47:12;;;;;;;13.40;2.92;;;9.50;99.90;;;;;;7306497;32;20116;-57
2023/04/25 08:51:25;;;;;;;11.70;3.00;;;9.00;99.90;;;;;;7308168;32;20165;-57
2023/04/25 08:55:28;;;;;;;11.07;2.70;;;9.90;99.90;;;;;;7304607;32;20157;-56
2023/04/25 08:59:32;;;;;;;10.05;2.30;;;10.90;99.90;;;;;;7304824;32;20177;-57
2023/04/25 09:03:35;;;;;;;10.57;2.28;;;13.20;99.90;;;;;;7297117;32;20103;-57
2023/04/25 09:07:36;;;;;;;9.15;2.33;;;14.50;99.90;;;;;;7296474;32;20151;-57
2023/04/25 09:11:38;;;;;;;5.62;1.55;;;15.10;96.80;;;;;;7287452;32;20206;-58
2023/04/25 09:15:51;;;;;;;5.75;1.48;;;14.70;94.80;;;;;;7309995;32;20100;-56
2023/04/25 09:19:53;;;;;;;7.05;1.48;;;13.50;94.20;;;;;;7304033;32;20601;-55
2023/04/25 09:23:55;;;;;;;9.32;1.92;;;12.10;99.20;;;;;;7304451;32;20122;-56
2023/04/25 09:27:57;;;;;;;10.02;2.15;;;11.20;99.90;;;;;;7305361;32;20289;-56
2023/04/25 09:32:13;;;;;;;8.95;1.87;;;10.90;99.90;;;;;;7303323;32;20214;-56
2023/04/25 09:36:15;;;;;;;11.15;2.42;;;10.50;99.90;;;;;;7303508;32;20151;-56
2023/04/25 09:40:18;;;;;;;9.10;1.90;;;10.30;99.90;;;;;;7308607;32;20590;-56
2023/04/25 09:44:24;;;;;;;10.98;1.77;;;10.30;99.90;;;;;;7304539;32;20280;-56
2023/04/25 09:48:27;;;;;;;8.10;2.20;;;12.00;99.90;;;;;;7303516;32;20099;-56
2023/04/25 09:52:30;;;;;;;6.55;1.33;;;13.00;99.90;;;;;;7310688;32;20780;-56
2023/04/25 09:56:37;;;;;;;6.80;1.40;;;13.20;99.90;;;;;;7302105;32;20111;-56
2023/04/25 10:00:40;;;;;;;;;;;13.20;98.30;;;;;;7315741;32;20155;-57
2023/04/25 10:04:44;;;;;;;8.13;1.60;;;12.70;98.80;;;;;;7312732;32;20408;-58
2023/04/25 10:08:51;;;;;;;7.12;1.60;;;11.90;99.90;;;;;;7309343;32;20187;-56
2023/04/25 10:12:54;;;;;;;4.77;1.20;;;11.50;99.90;;;;;;7302326;32;20123;-57
2023/04/25 10:16:57;;;;;;;4.53;1.08;;;11.00;99.90;;;;;;7324297;32;20130;-56
2023/04/25 10:21:04;;;;;;;10.10;1.40;;;11.00;99.90;;;;;;7317962;32;20108;-57
2023/04/25 10:25:08;;;;;;;5.70;1.20;;;11.20;99.90;;;;;;7323798;32;20187;-56
2023/04/25 10:29:09;;;;;;;4.45;1.08;;;11.30;98.70;;;;;;7310104;32;20146;-57
2023/04/25 10:33:18;;;;;;;3.08;1.08;;;11.30;99.10;;;;;;7317752;32;20166;-58
2023/04/25 10:37:20;;;;;;;5.47;0.88;;;11.40;96.30;;;;;;7310975;32;20104;-57
2023/04/25 10:41:22;;;;;;;9.40;1.40;;;11.50;96.70;;;;;;7316618;32;20104;-57
2023/04/25 10:45:25;;;;;;;8.20;1.50;;;12.30;99.90;;;;;;7311928;32;20104;-57
2023/04/25 10:49:35;;;;;;;5.87;1.05;;;13.80;98.00;;;;;;7312467;32;20250;-56
2023/04/25 10:53:37;;;;;;;7.93;1.08;;;13.20;91.60;;;;;;7304378;32;20390;-57
2023/04/25 10:57:41;;;;;;;5.62;1.10;;;12.00;96.10;;;;;;7304126;32;20100;-58
2023/04/25 11:01:48;;;;;;;4.65;1.45;;;11.90;97.60;;;;;;7301079;32;20229;-56
2023/04/25 11:05:52;;;;;;;6.93;1.35;;;11.40;98.00;;;;;;7303222;32;20203;-57
2023/04/25 11:10:02;;;;;;;4.12;1.05;;;11.00;97.70;;;;;;7306335;32;20568;-57
2023/04/25 11:14:04;;;;;;;9.13;1.80;;;11.30;99.90;;;;;;7304167;32;20142;-56
2023/04/25 11:18:06;;;;;;;10.60;1.45;;;11.60;99.20;;;;;;7313510;32;20534;-56
2023/04/25 11:22:10;;;;;;;5.82;1.80;;;12.80;99.90;;;;;;7299926;32;20127;-57
2023/04/25 11:26:13;;;;;;;9.75;1.98;;;14.10;94.50;;;;;;7304701;32;20104;-56
2023/04/25 11:30:16;;;;;;;5.90;1.50;;;12.90;95.40;;;;;;7302840;32;20126;-57
2023/04/25 11:34:18;;;;;;;7.25;1.70;;;12.10;96.30;;;;;;7300009;32;20213;-57
2023/04/25 11:38:20;;;;;;;7.32;1.30;;;11.30;99.50;;;;;;7301695;32;20190;-56
2023/04/25 11:42:24;;;;;;;4.97;1.17;;;10.70;99.90;;;;;;7306427;32;20123;-56
2023/04/25 11:46:26;;;;;;;6.12;1.52;;;10.30;99.90;;;;;;7308065;32;20215;-56
2023/04/25 11:50:28;;;;;;;5.10;1.60;;;9.70;99.90;;;;;;7315714;32;20127;-58
2023/04/25 11:54:30;;;;;;;7.50;1.20;;;9.60;99.90;;;;;;7304437;32;20181;-56
2023/04/25 11:58:32;;;;;;;10.13;1.87;;;10.20;99.90;;;;;;7317678;32;20240;-56
2023/04/25 12:02:35;;;;;;;7.32;1.85;;;10.90;99.90;;;;;;7318443;32;20227;-56
2023/04/25 12:06:39;;;;;;;9.98;2.03;;;10.40;99.90;;;;;;7309990;32;20223;-58
2023/04/25 12:10:44;;;;;;;9.32;2.03;;;10.40;99.90;;;;;;7305117;32;20978;-56
2023/04/25 12:14:51;;;;;;;6.07;1.70;;;10.10;99.90;;;;;;7309208;32;20100;-56
2023/04/25 12:18:53;;;;;;;7.35;1.75;;;9.90;99.90;;;;;;7315084;32;20119;-55
2023/04/25 12:22:57;;;;;;;7.15;1.77;;;9.60;99.90;;;;;;7304022;32;20323;-56
2023/04/25 12:27:02;;;;;;;8.05;2.10;;;9.30;99.90;;;;;;7299437;32;20707;-56
2023/04/25 12:31:05;;;;;;;8.13;1.92;;;9.00;99.90;;;;;;7302038;32;20784;-56
2023/04/25 12:35:08;;;;;;;9.15;2.47;;;8.90;99.90;;;;;;7303863;32;20266;-55
2023/04/25 12:39:15;;;;;;;9.48;2.22;;;9.10;99.90;;;;;;7313007;32;20120;-56
2023/04/25 12:43:17;;;;;;;;;;;9.30;99.90;;;;;;7308261;32;20219;-56
2023/04/25 12:47:19;;;;;;;9.88;2.03;;;9.50;99.90;;;;;;7306586;32;20035;-56
2023/04/25 12:51:24;;;;;;;7.07;1.77;;;9.90;99.90;;;;;;7306160;32;20211;-56
2023/04/25 12:55:26;;;;;;;7.53;1.70;;;10.50;99.90;;;;;;7307039;32;20782;-56
2023/04/25 12:59:28;;;;;;;4.43;1.35;;;11.20;99.90;;;;;;7305713;32;20274;-56
2023/04/25 13:03:29;;;;;;;6.72;1.48;;;11.80;99.90;;;;;;7308156;32;20303;-57
2023/04/25 13:07:31;;;;;;;7.85;1.85;;;12.50;99.90;;;;;;7311122;32;20095;-56
2023/04/25 13:11:36;;;;;;;8.98;1.85;;;13.50;99.90;;;;;;7306639;32;20239;-55
2023/04/25 13:15:38;;;;;;;8.00;2.03;;;13.70;99.90;;;;;;7310116;32;20285;-56
2023/04/25 13:19:39;;;;;;;5.35;1.33;;;12.50;99.90;;;;;;7301361;32;20149;-55
2023/04/25 13:23:42;;;;;;;6.53;0.93;;;12.10;99.90;;;;;;7307195;32;20608;-55
2023/04/25 13:27:44;;;;;;;6.40;1.52;;;12.30;99.90;;;;;;7299727;32;20229;-56
2023/04/25 13:31:46;;;;;;;5.60;1.60;;;12.70;99.90;;;;;;7309437;32;21884;-55
2023/04/25 13:35:56;;;;;;;6.87;1.15;;;12.50;99.90;;;;;;7302810;32;20123;-56
2023/04/25 13:40:04;;;;;;;5.80;1.30;;;11.90;99.90;;;;;;7300750;32;20297;-55
2023/04/25 13:44:06;;;;;;;9.02;1.50;;;11.40;99.90;;;;;;7316164;32;20790;-56
2023/04/25 13:48:08;;;;;;;7.20;1.33;;;10.70;99.90;;;;;;7307201;32;20209;-56
2023/04/25 13:52:10;;;;;;;5.95;1.30;;;10.10;99.90;;;;;;7314689;32;20226;-56
2023/04/25 13:56:11;;;;;;;3.12;1.05;;;9.70;99.90;;;;;;7316153;32;20559;-56
2023/04/25 14:00:13;;;;;;;6.62;1.58;;;9.40;99.90;;;;;;7313228;32;20114;-56
2023/04/25 14:04:15;;;;;;;6.25;1.42;;;9.50;99.90;;;;;;7311827;32;20237;-56
2023/04/25 14:08:17;;;;;;;5.45;1.33;;;11.50;99.90;;;;;;7308314;32;20681;-57
2023/04/25 14:12:18;;;;;;;5.80;1.30;;;14.00;99.90;;;;;;7300383;32;20215;-57
2023/04/25 14:16:20;;;;;;;8.88;1.50;;;15.20;99.90;;;;;;7298838;32;20235;-56
2023/04/25 14:20:23;;;;;;;20.52;3.65;;;15.70;99.90;;;;;;7303843;32;20226;-56
2023/04/25 14:24:25;;;;;;;8.55;2.05;;;14.00;98.70;;;;;;7306258;32;20199;-54
2023/04/25 14:28:27;;;;;;;11.63;3.70;;;12.90;99.90;;;;;;7302275;32;20096;-54
2023/04/25 14:32:29;;;;;;;10.15;1.52;;;12.10;99.90;;;;;;7299281;32;20564;-55
2023/04/25 14:36:31;;;;;;;8.45;1.48;;;11.70;99.90;;;;;;7322571;32;20096;-56
2023/04/25 14:40:33;;;;;;;8.93;1.95;;;11.40;99.90;;;;;;7309151;32;20785;-56
2023/04/25 14:44:35;;;;;;;6.62;1.50;;;11.30;99.90;;;;;;7301541;32;20384;-55
2023/04/25 14:48:37;;;;;;;7.90;1.58;;;11.00;99.90;;;;;;7301169;32;20638;-55
2023/04/25 14:52:39;;;;;;;5.87;1.23;;;10.90;99.90;;;;;;7300913;32;20308;-56
2023/04/25 14:56:40;;;;;;;6.53;1.20;;;12.00;99.90;;;;;;7298164;32;20159;-55
2023/04/25 15:00:43;;;;;;;3.75;0.95;;;13.10;99.90;;;;;;7294203;32;20131;-55
2023/04/25 15:04:45;;;;;;;4.95;1.23;;;12.90;99.90;;;;;;7300548;32;20481;-55
2023/04/25 15:08:47;;;;;;;5.45;1.27;;;12.40;99.90;;;;;;7305783;32;20329;-56
2023/04/25 15:12:50;;;;;;;6.75;1.20;;;11.40;99.90;;;;;;7301439;32;20285;-55
2023/04/25 15:16:52;;;;;;;5.65;1.45;;;11.00;99.90;;;;;;7305523;32;20144;-55
2023/04/25 15:20:53;;;;;;;4.12;1.00;;;10.50;99.90;;;;;;7304569;32;20204;-55
2023/04/25 15:24:56;;;;;;;5.43;1.75;;;10.10;99.90;;;;;;7309655;32;20153;-54
2023/04/25 15:28:57;;;;;;;6.43;1.25;;;10.00;99.90;;;;;;7306132;32;20242;-54
2023/04/25 15:32:59;;;;;;;4.35;1.30;;;10.00;99.90;;;;;;7308394;32;20246;-55
2023/04/25 15:37:01;;;;;;;5.50;0.95;;;9.90;99.90;;;;;;7305440;32;20103;-56
2023/04/25 15:41:03;;;;;;;5.90;1.30;;;10.10;99.90;;;;;;7304766;32;20198;-55
2023/04/25 15:45:08;;;;;;;5.07;1.12;;;10.40;99.90;;;;;;7305319;32;20091;-55
2023/04/25 15:49:10;;;;;;;8.70;1.20;;;10.50;99.90;;;;;;7305926;32;20218;-55
2023/04/25 15:53:12;;;;;;;4.65;1.00;;;10.60;99.90;;;;;;7303510;32;20599;-55
2023/04/25 15:57:14;;;;;;;4.72;1.05;;;10.40;99.90;;;;;;7308394;32;20188;-55
2023/04/25 16:01:16;;;;;;;2.92;0.80;;;10.30;99.90;;;;;;7304405;32;20318;-55
2023/04/25 16:05:18;;;;;;;5.15;0.95;;;10.20;99.90;;;;;;7305100;32;20195;-56
2023/04/25 16:09:21;;;;;;;7.47;0.90;;;10.20;99.90;;;;;;7300791;32;20361;-56
2023/04/25 16:13:22;;;;;;;3.83;0.80;;;10.00;99.90;;;;;;7302373;32;20774;-55
2023/04/25 16:17:24;;;;;;;4.57;0.90;;;9.90;99.90;;;;;;7300582;32;20233;-55
2023/04/25 16:21:27;;;;;;;5.43;0.95;;;9.80;99.90;;;;;;7300135;32;20216;-55
2023/04/25 16:25:29;;;;;;;3.42;0.95;;;9.70;99.90;;;;;;7304231;32;20210;-55
2023/04/25 16:29:31;;;;;;;6.43;1.27;;;9.70;99.90;;;;;;7304854;32;20217;-56
2023/04/25 16:33:33;;;;;;;4.82;1.20;;;9.60;99.90;;;;;;7304301;32;20127;-56
2023/04/25 16:37:35;;;;;;;4.47;0.88;;;9.70;99.90;;;;;;7311810;32;20096;-56
2023/04/25 16:41:37;;;;;;;6.35;0.98;;;9.60;99.90;;;;;;7311611;32;20418;-56
2023/04/25 16:45:38;;;;;;;3.60;0.80;;;9.60;99.90;;;;;;7301894;32;20476;-57
2023/04/25 16:49:40;;;;;;;5.10;0.98;;;9.60;99.90;;;;;;7301607;32;20138;-56
2023/04/25 16:53:42;;;;;;;4.25;0.75;;;9.50;99.90;;;;;;7297979;32;20780;-56
2023/04/25 16:57:44;;;;;;;4.35;1.05;;;9.50;99.90;;;;;;7296757;32;20122;-56
2023/04/25 17:01:45;;;;;;;8.10;1.10;;;9.50;99.90;;;;;;7310323;32;20215;-55
2023/04/25 17:05:53;;;;;;;4.20;1.10;;;9.50;99.90;;;;;;7302977;32;20096;-56
2023/04/25 17:09:55;;;;;;;6.03;1.25;;;9.50;99.90;;;;;;7297617;32;20671;-56
2023/04/25 17:13:57;;;;;;;3.97;0.80;;;9.60;99.90;;;;;;7306586;32;20104;-55
2023/04/25 17:18:01;;;;;;;4.97;0.93;;;9.50;99.90;;;;;;7302286;32;20329;-57
2023/04/25 17:22:03;;;;;;;4.85;0.88;;;9.30;99.90;;;;;;7296872;32;20197;-56
2023/04/25 17:26:05;;;;;;;2.05;0.82;;;9.20;99.90;;;;;;7297651;32;20191;-56
2023/04/25 17:30:07;;;;;;;4.65;1.10;;;9.00;99.90;;;;;;7298785;32;20151;-57
2023/04/25 17:34:10;;;;;;;3.40;0.75;;;9.10;99.90;;;;;;7298791;32;20176;-57
2023/04/25 17:38:13;;;;;;;6.05;1.10;;;9.10;99.90;;;;;;7299958;32;20114;-56
2023/04/25 17:42:15;;;;;;;4.75;0.77;;;9.10;99.90;;;;;;7298530;32;20187;-57
2023/04/25 17:46:17;;;;;;;5.62;1.20;;;9.10;99.90;;;;;;7293712;32;20153;-56
2023/04/25 17:50:19;;;;;;;5.03;0.98;;;9.00;99.90;;;;;;7302488;32;20373;-60
2023/04/25 17:54:21;;;;;;;5.95;1.20;;;9.10;99.90;;;;;;7296185;32;20116;-57
2023/04/25 17:58:23;;;;;;;5.95;1.45;;;9.10;99.90;;;;;;7304892;32;20498;-56
2023/04/25 18:02:26;;;;;;;5.35;1.33;;;9.00;99.90;;;;;;7289750;32;20317;-57
2023/04/25 18:06:28;;;;;;;5.10;0.93;;;9.10;99.90;;;;;;7303910;32;20798;-56
2023/04/25 18:10:30;;;;;;;3.37;1.27;;;9.10;99.90;;;;;;7297175;32;20348;-57
2023/04/25 18:14:34;;;;;;;6.50;1.20;;;9.10;99.90;;;;;;7303975;32;20103;-57
2023/04/25 18:18:36;;;;;;;4.07;1.30;;;9.00;99.90;;;;;;7297567;32;20100;-57
2023/04/25 18:22:38;;;;;;;3.33;0.93;;;8.90;99.90;;;;;;7304299;32;20136;-57
2023/04/25 18:26:40;;;;;;;5.57;1.30;;;8.90;99.90;;;;;;7303101;32;20166;-57
2023/04/25 18:30:43;;;;;;;4.22;1.10;;;8.70;99.90;;;;;;7304287;32;20193;-56
2023/04/25 18:34:47;;;;;;;7.45;1.33;;;8.60;99.90;;;;;;7301710;32;20214;-56
2023/04/25 18:38:53;;;;;;;5.75;0.85;;;8.50;99.90;;;;;;7308763;32;20266;-57
2023/04/25 18:42:57;;;;;;;5.62;1.10;;;8.30;99.90;;;;;;7304365;32;20214;-56
2023/04/25 18:46:59;;;;;;;3.53;1.05;;;8.30;99.90;;;;;;7307472;32;20753;-56
2023/04/25 18:51:01;;;;;;;6.18;1.12;;;8.10;99.90;;;;;;7296605;32;20206;-57
2023/04/25 18:55:03;;;;;;;3.03;0.90;;;8.00;99.90;;;;;;7305149;32;20130;-56
2023/04/25 18:59:05;;;;;;;2.95;0.80;;;7.90;99.90;;;;;;7300875;32;20121;-56
2023/04/25 19:03:07;;;;;;;7.80;2.03;;;7.70;99.90;;;;;;7307968;32;20438;-56
2023/04/25 19:07:09;;;;;;;3.95;1.20;;;7.70;99.90;;;;;;7298176;32;20298;-56
2023/04/25 19:11:11;;;;;;;5.97;1.27;;;7.60;99.90;;;;;;7301677;32;20104;-56
2023/04/25 19:15:22;;;;;;;5.53;1.20;;;7.50;99.90;;;;;;7304630;32;20756;-61
2023/04/25 19:19:24;;;;;;;2.70;0.85;;;7.50;99.90;;;;;;7310812;32;20182;-56
2023/04/25 19:23:25;;;;;;;7.97;1.12;;;7.50;99.90;;;;;;7294371;32;20156;-56
2023/04/25 19:27:27;;;;;;;9.48;1.73;;;7.40;99.90;;;;;;7302359;32;20228;-56
2023/04/25 19:31:29;;;;;;;5.35;1.62;;;7.30;99.90;;;;;;7295400;32;20096;-57
2023/04/25 19:35:32;;;;;;;6.65;1.50;;;7.30;99.90;;;;;;7296254;32;20261;-56
2023/04/25 19:39:33;;;;;;;8.02;1.80;;;7.20;99.90;;;;;;7299169;32;20609;-57
2023/04/25 19:43:35;;;;;;;3.67;1.00;;;7.00;99.90;;;;;;7301596;32;20215;-57
2023/04/25 19:47:38;;;;;;;9.02;1.50;;;6.90;99.90;;;;;;7296475;32;20172;-56
2023/04/25 19:51:40;;;;;;;5.68;1.33;;;6.80;99.90;;;;;;7301465;32;20221;-58
2023/04/25 19:55:42;;;;;;;5.37;1.35;;;6.70;99.90;;;;;;7309298;32;20352;-57
2023/04/25 19:59:46;;;;;;;9.55;1.60;;;6.60;99.90;;;;;;7303213;32;20110;-56
2023/04/25 20:03:51;;;;;;;7.28;1.50;;;6.60;99.90;;;;;;7304191;32;20114;-57
2023/04/25 20:07:54;;;;;;;3.92;1.10;;;6.50;99.90;;;;;;7310215;32;20210;-57
2023/04/25 20:11:55;;;;;;;4.78;1.35;;;6.40;99.90;;;;;;7307369;32;20126;-57
2023/04/25 20:15:57;;;;;;;9.80;1.67;;;6.20;99.90;;;;;;7299880;32;20234;-57
2023/04/25 20:20:05;;;;;;;8.18;1.40;;;6.10;99.90;;;;;;7305902;32;20120;-56
2023/04/25 20:24:07;;;;;;;3.25;1.35;;;6.10;99.90;;;;;;7309607;32;20112;-56
2023/04/25 20:28:09;;;;;;;4.35;1.58;;;5.90;99.90;;;;;;7304009;32;20104;-56
2023/04/25 20:32:11;;;;;;;4.40;1.40;;;5.80;99.90;;;;;;7307887;32;20145;-57
2023/04/25 20:36:14;;;;;;;7.10;1.77;;;5.70;99.90;;;;;;7305401;32;20148;-56
2023/04/25 20:40:16;;;;;;;6.68;1.35;;;5.60;99.90;;;;;;7307714;32;20103;-55
2023/04/25 20:44:19;;;;;;;5.03;1.60;;;5.50;99.90;;;;;;7307162;32;20099;-57
2023/04/25 20:48:21;;;;;;;8.13;1.70;;;5.30;99.90;;;;;;7305971;32;20115;-56
2023/04/25 20:52:23;;;;;;;9.05;1.60;;;5.20;99.90;;;;;;7309225;32;20280;-55
2023/04/25 20:56:25;;;;;;;7.97;1.67;;;5.10;99.90;;;;;;7301838;32;20103;-55
2023/04/25 21:00:28;;;;;;;6.22;1.65;;;4.90;99.90;;;;;;7304643;32;20195;-56
2023/04/25 21:04:30;;;;;;;7.87;1.48;;;4.80;99.90;;;;;;7306962;32;20220;-56
2023/04/25 21:08:32;;;;;;;11.20;2.22;;;4.60;99.90;;;;;;7301361;32;20122;-55